logo
Search for airport 
image banner adimage banner adimage banner ad
image banner ad

LSME - Emmen

Located in , Switzerland

ICAO - LSME, IATA - EML

Data provided by Airmate  

General information

Coordinates: N47°5'32" E8°18'17"
Elevation is 1398 feet MSL.
Magnetic variation is 2.497° East
View others Airports in Lucerne

Operational data

Special qualification required
Current time UTC:
Current local time:
Weather
METAR: LSME 290920Z VRB02KT CAVOK 17/11 Q1016 RMK BLU
View NOTAMs / SUP AIP / TFR affecting this airport [VIEW]
Communications frequencies: [VIEW]

Runways:

RWY identifierQFULength (ft)Width (ft)SurfaceLDA (ft)
048202131ASPH8005
228202131ASPH7799

Airport contact information

Address: Switzerland

Satellite view of LSME